Friday Harbor, WA

12:56 PM PDT on May 27, 2015 (GMT -0700)
San Juan Wx | | Change Station
CLOSE
Current Station
Personal Weather Station
Location: Friday Harbor, WA
Elevation: 223 ft
Nearby Weather Stations

Elev 223 ft 48.51 °N, 123.04 °W | Updated 42 minutes ago

Clear
Clear
65.1 °F
Feels Like 65.1 °F
N
2.7
Wind Variable Wind from ESE

Today
High -- | Low -- °F
--% Chance of Precip.
Yesterday
High -- | Low -- °F
Precip. -- in
5:18 AM 9:00 PM
Waxing Gibbous, 69% visible
Pressure 30.09 in
Visibility 10.0 miles
Clouds Clear
Dew Point 58 °F
Humidity 77%
Rainfall 0.00 in
Snow Depth Not available.
UV 9 out of 12
Pollen 7.80 out of 12
Air Quality Not available.
Flu Activity Sporadic
METAR KFHR 271853Z AUTO 11004KT 10SM CLR 16/12 A3009 RMK AO2 SLP188 T01610117

More Conditions Fewer Conditions

Pressure 30.09 in
Visibility 10.0 miles
Clouds Clear
Dew Point 58 °F
Humidity 77%
Rainfall 0.00 in
Snow Depth Not available.
UV 9 out of 12
Pollen 7.80 out of 12
Air Quality Not available.
Flu Activity Sporadic
METAR KFHR 271853Z AUTO 11004KT 10SM CLR 16/12 A3009 RMK AO2 SLP188 T01610117

More Conditions Fewer Conditions

10-Day Weather Forecast

Almanac

Astronomy

May. 27, 2015 Rise Set
Actual Time
Civil Twilight
Nautical Twilight
Astronomical Twilight
Moon
Length of Visible Light
Length of Day
Tomorrow will be .
, % of the Moon is Illuminated

Today's Extremes

State Highs State Lows

Community

WunderPhotos

Upload Photos

1,824,774 photos uploaded!

WunderBlogs® & News

Nearby

Air Quality

  Air Quality AQ Index Pollutant
Not available.

Snow Depth

Station Depth Elevation

Earthquake Activity

City Distance Mag. Time & Date
Minimum magnitude displayed is 2.5.

Coastal Water Temperatures

Place Temperature

Stations

Nearby Weather Stations

Station Location Temp. Windchill Dew Point Humidity Wind Precip. Elev Updated Type